createdAt,value
2022-09-01T00:00:36.491Z,61.05
2022-09-01T00:01:36.471Z,61.07
2022-09-01T00:02:36.527Z,61.10
2022-09-01T00:03:36.782Z,61.08
2022-09-01T00:04:36.506Z,61.05
2022-09-01T00:05:36.440Z,61.18
2022-09-01T00:06:36.420Z,61.17
2022-09-01T00:07:36.410Z,61.25
2022-09-01T00:08:36.394Z,61.17
2022-09-01T00:09:36.559Z,61.26
2022-09-01T00:10:36.380Z,61.29
2022-09-01T00:11:36.374Z,61.33
2022-09-01T00:12:36.350Z,61.35
2022-09-01T00:13:36.341Z,61.35
2022-09-01T00:14:38.507Z,61.43
2022-09-01T00:15:37.548Z,61.46
2022-09-01T00:16:36.311Z,61.45
2022-09-01T00:17:36.311Z,61.49
2022-09-01T00:18:36.285Z,61.45
2022-09-01T00:19:36.282Z,61.57
2022-09-01T00:20:36.272Z,61.66
2022-09-01T00:21:36.432Z,61.62
2022-09-01T00:22:36.240Z,61.69
2022-09-01T00:23:36.247Z,61.71
2022-09-01T00:24:36.225Z,61.81
2022-09-01T00:25:36.213Z,61.75
2022-09-01T00:26:36.200Z,61.67
2022-09-01T00:27:36.543Z,61.71
2022-09-01T00:28:36.172Z,61.88
2022-09-01T00:29:36.190Z,61.91
2022-09-01T00:30:36.160Z,62.03
2022-09-01T00:31:36.142Z,62.07
2022-09-01T00:32:36.139Z,62.05
2022-09-01T00:33:36.282Z,62.08
2022-09-01T00:34:36.112Z,62.09
2022-09-01T00:35:37.319Z,62.08
2022-09-01T00:36:36.092Z,62.15
2022-09-01T00:37:36.085Z,62.36
2022-09-01T00:38:36.072Z,62.39
2022-09-01T00:39:36.272Z,62.54
2022-09-01T00:40:36.147Z,62.55
2022-09-01T00:41:36.049Z,62.62
2022-09-01T00:42:36.031Z,62.73
2022-09-01T00:43:36.021Z,62.81
2022-09-01T00:44:36.006Z,62.75
2022-09-01T00:45:36.330Z,62.87
2022-09-01T00:46:40.214Z,62.93
2022-09-01T00:47:36.981Z,62.90
2022-09-01T00:48:35.956Z,62.87
2022-09-01T00:49:35.952Z,62.91
2022-09-01T00:50:35.943Z,63.03
2022-09-01T00:51:36.089Z,63.05
2022-09-01T00:52:35.921Z,63.04
2022-09-01T00:53:36.083Z,63.03
2022-09-01T00:54:35.897Z,63.09
2022-09-01T00:55:35.892Z,63.06
2022-09-01T00:56:35.872Z,63.09
2022-09-01T00:57:35.881Z,63.25
2022-09-01T00:58:35.852Z,63.38
2022-09-01T00:59:36.012Z,63.30
2022-09-01T01:00:35.835Z,63.28
2022-09-01T01:01:35.835Z,63.26
2022-09-01T01:02:35.875Z,63.20
2022-09-01T01:03:35.804Z,63.28
2022-09-01T01:04:35.789Z,63.31
2022-09-01T01:05:36.106Z,63.28
2022-09-01T01:06:35.775Z,63.27
2022-09-01T01:07:35.760Z,63.38
2022-09-01T01:08:35.747Z,63.45
2022-09-01T01:09:35.745Z,63.44
2022-09-01T01:10:35.725Z,63.42
2022-09-01T01:11:35.873Z,63.48
2022-09-01T01:12:35.702Z,63.51
2022-09-01T01:13:35.692Z,63.56
2022-09-01T01:14:35.684Z,63.58
2022-09-01T01:15:35.681Z,63.70
2022-09-01T01:16:35.754Z,63.68
2022-09-01T01:17:35.863Z,63.67
2022-09-01T01:18:35.637Z,63.68
2022-09-01T01:19:38.871Z,63.75
2022-09-01T01:20:35.619Z,63.87
2022-09-01T01:21:35.625Z,63.90
2022-09-01T01:22:35.594Z,63.91
2022-09-01T01:23:35.737Z,63.88
2022-09-01T01:24:35.597Z,63.99
2022-09-01T01:25:35.574Z,64.16
2022-09-01T01:26:35.550Z,64.25
2022-09-01T01:27:38.102Z,64.19
2022-09-01T01:28:36.781Z,64.28
2022-09-01T01:29:35.514Z,64.24
2022-09-01T01:30:35.563Z,64.39
2022-09-01T01:31:35.493Z,64.46
2022-09-01T01:32:35.493Z,64.58
2022-09-01T01:33:35.484Z,64.54
2022-09-01T01:34:35.642Z,64.58
2022-09-01T01:35:35.453Z,64.56
2022-09-01T01:36:35.444Z,64.57
2022-09-01T01:37:35.434Z,64.53
2022-09-01T01:38:35.426Z,64.57
2022-09-01T01:39:35.415Z,64.52
2022-09-01T01:40:35.776Z,64.52
2022-09-01T01:41:35.384Z,64.54
2022-09-01T01:42:35.388Z,64.60
2022-09-01T01:43:35.367Z,64.59
2022-09-01T01:44:35.353Z,64.65
2022-09-01T01:45:35.343Z,64.67
2022-09-01T01:46:35.543Z,64.66
2022-09-01T01:47:35.326Z,64.69
2022-09-01T01:48:35.320Z,64.85
2022-09-01T01:49:35.303Z,64.86
2022-09-01T01:50:35.293Z,64.93
2022-09-01T01:51:35.277Z,65.05
2022-09-01T01:52:35.445Z,65.02
2022-09-01T01:53:35.258Z,65.12
2022-09-01T01:54:35.251Z,65.07
2022-09-01T01:56:26.221Z,64.74
2022-09-01T01:57:26.220Z,65.15
2022-09-01T01:58:26.481Z,65.18
2022-09-01T01:59:26.191Z,65.15
2022-09-01T02:00:26.172Z,65.14
2022-09-01T02:01:26.190Z,65.15
2022-09-01T02:02:26.201Z,65.24
2022-09-01T02:03:26.145Z,65.18
2022-09-01T02:04:26.299Z,65.32
2022-09-01T02:05:26.121Z,65.34
2022-09-01T02:06:26.101Z,65.50
2022-09-01T02:07:26.108Z,65.56
2022-09-01T02:08:26.277Z,65.54
2022-09-01T02:09:26.089Z,65.67
2022-09-01T02:10:26.213Z,65.74
2022-09-01T02:11:26.051Z,65.81
2022-09-01T02:12:26.032Z,65.80
2022-09-01T02:13:26.579Z,65.66
2022-09-01T02:14:26.020Z,65.66
2022-09-01T02:15:26.008Z,65.67
2022-09-01T02:16:26.230Z,65.65
2022-09-01T02:17:25.997Z,65.63
2022-09-01T02:18:25.971Z,65.64
2022-09-01T02:19:25.961Z,65.64
2022-09-01T02:20:25.952Z,65.65
2022-09-01T02:21:25.951Z,65.83
2022-09-01T02:22:26.151Z,66.00
2022-09-01T02:23:25.922Z,66.11
2022-09-01T02:24:25.918Z,66.05
2022-09-01T02:25:25.900Z,66.07
2022-09-01T02:26:25.881Z,66.01
2022-09-01T02:27:25.939Z,66.08
2022-09-01T02:28:26.022Z,66.17
2022-09-01T02:29:25.861Z,66.30
2022-09-01T02:30:25.865Z,66.36
2022-09-01T02:31:25.836Z,66.32
2022-09-01T02:32:25.821Z,66.25
2022-09-01T02:33:25.821Z,66.34
2022-09-01T02:34:26.010Z,66.34
2022-09-01T02:35:25.793Z,66.43
2022-09-01T02:36:25.799Z,66.54
2022-09-01T02:37:25.773Z,66.48
2022-09-01T02:38:25.751Z,66.58
2022-09-01T02:39:25.740Z,66.45
2022-09-01T02:40:25.930Z,66.51
2022-09-01T02:41:25.721Z,66.45
2022-09-01T02:42:25.713Z,66.57
2022-09-01T02:43:25.701Z,66.59
2022-09-01T02:44:25.692Z,66.61
2022-09-01T02:45:25.690Z,66.56
2022-09-01T02:46:26.003Z,66.45
2022-09-01T02:47:25.666Z,66.35
2022-09-01T02:48:25.659Z,66.41
2022-09-01T02:49:25.641Z,66.47
2022-09-01T02:50:25.621Z,66.56
2022-09-01T02:51:25.891Z,66.49
2022-09-01T02:52:25.761Z,66.55
2022-09-01T02:53:25.606Z,66.59
2022-09-01T02:54:25.593Z,66.62
2022-09-01T02:55:25.570Z,66.59
2022-09-01T02:56:25.926Z,66.57
2022-09-01T02:57:25.553Z,66.76
2022-09-01T02:58:25.806Z,66.75
2022-09-01T02:59:25.574Z,66.77
2022-09-01T03:00:25.523Z,66.82
2022-09-01T03:01:25.609Z,66.78
2022-09-01T03:02:25.493Z,66.74
2022-09-01T03:03:25.492Z,66.72
2022-09-01T03:04:25.698Z,66.74
2022-09-01T03:05:25.466Z,66.71
2022-09-01T03:06:25.451Z,66.76
2022-09-01T03:07:25.452Z,66.77
2022-09-01T03:08:25.426Z,66.75
2022-09-01T03:09:25.421Z,66.83
2022-09-01T03:10:25.612Z,66.84
2022-09-01T03:11:25.392Z,66.94
2022-09-01T03:12:25.381Z,67.12
2022-09-01T03:13:25.376Z,67.11
2022-09-01T03:14:25.365Z,67.07
2022-09-01T03:15:25.348Z,67.13
2022-09-01T03:16:25.608Z,67.12
2022-09-01T03:17:25.330Z,67.15
2022-09-01T03:18:25.324Z,67.20
2022-09-01T03:19:25.311Z,67.17
2022-09-01T03:20:25.307Z,67.23
2022-09-01T03:21:25.296Z,67.27
2022-09-01T03:22:25.441Z,67.32
2022-09-01T03:23:25.281Z,67.37
2022-09-01T03:24:25.254Z,67.40
2022-09-01T03:25:25.242Z,67.48
2022-09-01T03:26:25.238Z,67.43
2022-09-01T03:27:25.231Z,67.41
2022-09-01T03:28:25.363Z,67.47
2022-09-01T03:29:25.201Z,67.52
2022-09-01T03:30:25.562Z,67.48
2022-09-01T03:31:25.203Z,67.56
2022-09-01T03:32:25.161Z,67.56
2022-09-01T03:33:25.156Z,67.50
2022-09-01T03:34:25.142Z,67.54
2022-09-01T03:35:25.133Z,67.60
2022-09-01T03:36:25.291Z,67.54
2022-09-01T03:37:25.124Z,67.66
2022-09-01T03:38:25.103Z,67.66
2022-09-01T03:39:25.091Z,67.66
2022-09-01T03:40:25.179Z,67.60
2022-09-01T03:41:25.090Z,67.49
2022-09-01T03:42:25.212Z,67.47
2022-09-01T03:43:25.050Z,67.54
2022-09-01T03:44:25.042Z,67.48
2022-09-01T03:45:25.075Z,67.55
2022-09-01T03:46:25.013Z,67.61
2022-09-01T03:47:25.038Z,67.65
2022-09-01T03:48:25.152Z,67.65
2022-09-01T03:49:25.020Z,67.68
2022-09-01T03:50:24.982Z,67.58
2022-09-01T03:51:24.974Z,67.60
2022-09-01T03:52:24.974Z,67.70
2022-09-01T03:53:24.948Z,67.66
2022-09-01T03:54:25.102Z,67.58
2022-09-01T03:55:24.920Z,67.66
2022-09-01T03:56:24.919Z,67.67
2022-09-01T03:57:24.903Z,67.70
2022-09-01T03:58:24.882Z,67.66
2022-09-01T03:59:24.880Z,67.65
2022-09-01T04:00:27.723Z,67.89
2022-09-01T04:01:24.890Z,67.95
2022-09-01T04:02:25.104Z,67.84
2022-09-01T04:03:28.597Z,67.82
2022-09-01T04:04:24.821Z,67.86
2022-09-01T04:05:24.815Z,67.79
2022-09-01T04:06:24.803Z,67.80
2022-09-01T04:07:24.796Z,67.88
2022-09-01T04:08:25.008Z,67.95
2022-09-01T04:09:24.771Z,67.85
2022-09-01T04:10:24.774Z,67.82
2022-09-01T04:11:24.752Z,67.89
2022-09-01T04:12:24.737Z,67.88
2022-09-01T04:13:24.745Z,67.94
2022-09-01T04:14:24.939Z,67.99
2022-09-01T04:15:24.721Z,68.02
2022-09-01T04:16:24.726Z,67.98
2022-09-01T04:17:27.497Z,68.15
2022-09-01T04:18:25.670Z,68.10
2022-09-01T04:19:24.665Z,68.11
2022-09-01T04:20:24.855Z,68.13
2022-09-01T04:21:24.640Z,68.13
2022-09-01T04:22:24.633Z,68.05
2022-09-01T04:23:24.616Z,68.18
2022-09-01T04:24:24.613Z,68.05
2022-09-01T04:25:24.960Z,68.15
2022-09-01T04:26:24.588Z,68.14
2022-09-01T04:27:24.579Z,68.16
2022-09-01T04:28:24.567Z,68.15
2022-09-01T04:29:24.547Z,68.20
2022-09-01T04:30:24.546Z,68.30
2022-09-01T04:31:24.737Z,68.28
2022-09-01T04:32:24.583Z,68.37
2022-09-01T04:33:24.509Z,68.43
2022-09-01T04:34:24.513Z,68.50
2022-09-01T04:35:24.488Z,68.52
2022-09-01T04:36:24.483Z,68.44
2022-09-01T04:37:24.632Z,68.50
2022-09-01T04:38:24.457Z,68.50
2022-09-01T04:39:24.451Z,68.57
2022-09-01T04:40:24.458Z,68.60
2022-09-01T04:41:24.432Z,68.78
2022-09-01T04:42:24.570Z,68.74
2022-09-01T04:43:24.569Z,68.67
2022-09-01T04:44:24.404Z,68.77
2022-09-01T04:45:24.419Z,68.98
2022-09-01T04:46:24.362Z,68.86
2022-09-01T04:47:24.354Z,68.80
2022-09-01T04:48:24.369Z,68.89
2022-09-01T04:49:24.500Z,68.88
2022-09-01T04:50:24.552Z,68.89
2022-09-01T04:51:24.317Z,69.06
2022-09-01T04:52:24.303Z,69.07
2022-09-01T04:53:24.298Z,69.06
2022-09-01T04:54:24.285Z,68.95
2022-09-01T04:55:24.273Z,69.00
2022-09-01T04:56:27.613Z,68.96
2022-09-01T04:57:24.252Z,68.95
2022-09-01T04:58:24.395Z,69.01
2022-09-01T04:59:24.370Z,68.84
2022-09-01T05:00:24.213Z,68.91
2022-09-01T05:01:24.271Z,68.85
2022-09-01T05:02:24.435Z,68.99
2022-09-01T05:03:24.729Z,68.92
2022-09-01T05:04:24.174Z,68.86
2022-09-01T05:05:24.247Z,68.87
2022-09-01T05:06:24.145Z,68.72
2022-09-01T05:07:24.148Z,68.75
2022-09-01T05:08:24.824Z,68.92
2022-09-01T05:09:24.120Z,68.87
2022-09-01T05:10:24.119Z,69.06
2022-09-01T05:11:24.087Z,69.07
2022-09-01T05:12:24.084Z,69.00
2022-09-01T05:13:24.072Z,69.19
2022-09-01T05:14:24.148Z,69.07
2022-09-01T05:15:24.045Z,69.04
2022-09-01T05:16:25.420Z,68.89
2022-09-01T05:17:24.033Z,68.85
2022-09-01T05:18:24.037Z,69.07
2022-09-01T05:19:24.004Z,69.27
2022-09-01T05:20:24.179Z,69.11
2022-09-01T05:21:23.990Z,68.90
2022-09-01T05:22:23.983Z,69.03
2022-09-01T05:23:23.964Z,68.96
2022-09-01T05:24:23.958Z,68.52
2022-09-01T05:25:23.947Z,68.44
2022-09-01T05:26:24.304Z,68.42
2022-09-01T05:27:23.932Z,68.25
2022-09-01T05:28:23.913Z,68.22
2022-09-01T05:29:23.894Z,68.02
2022-09-01T05:30:23.899Z,67.92
2022-09-01T05:31:23.930Z,67.80
2022-09-01T05:32:24.048Z,67.63
2022-09-01T05:33:23.847Z,67.47
2022-09-01T05:34:23.868Z,67.38
2022-09-01T05:35:23.830Z,67.33
2022-09-01T05:36:24.830Z,67.48
2022-09-01T05:37:23.803Z,67.45
2022-09-01T05:38:23.965Z,67.45
2022-09-01T05:39:23.808Z,67.27
2022-09-01T05:40:23.845Z,67.24
2022-09-01T05:41:23.827Z,67.32
2022-09-01T05:42:23.757Z,67.50
2022-09-01T05:43:23.745Z,67.46
2022-09-01T05:44:23.936Z,67.62
2022-09-01T05:45:23.724Z,67.67
2022-09-01T05:46:23.749Z,67.52
2022-09-01T05:47:23.695Z,67.74
2022-09-01T05:48:23.685Z,67.52
2022-09-01T05:49:23.676Z,67.27
2022-09-01T05:50:23.853Z,67.05
2022-09-01T05:51:43.271Z,67.03
2022-09-01T05:52:24.644Z,67.03
2022-09-01T05:53:23.646Z,66.85
2022-09-01T05:54:23.643Z,66.83
2022-09-01T05:55:23.625Z,66.67
2022-09-01T05:56:23.759Z,66.78
2022-09-01T05:57:34.336Z,66.67
2022-09-01T05:58:24.611Z,66.63
2022-09-01T05:59:24.899Z,66.55
2022-09-01T06:00:23.553Z,66.56
2022-09-01T06:01:23.545Z,66.53
2022-09-01T06:02:23.840Z,66.40
2022-09-01T06:03:23.873Z,66.35
2022-09-01T06:04:23.513Z,66.56
2022-09-01T06:05:23.500Z,66.69
2022-09-01T06:06:23.504Z,66.81
2022-09-01T06:07:26.479Z,66.56
2022-09-01T06:08:23.685Z,66.50
2022-09-01T06:09:23.455Z,66.38
2022-09-01T06:10:23.446Z,66.24
2022-09-01T06:11:23.433Z,66.02
2022-09-01T06:12:23.462Z,65.97
2022-09-01T06:13:25.742Z,65.88
2022-09-01T06:14:23.586Z,65.86
2022-09-01T06:15:23.384Z,65.99
2022-09-01T06:16:23.437Z,65.94
2022-09-01T06:17:23.364Z,65.89
2022-09-01T06:18:23.365Z,65.85
2022-09-01T06:19:23.346Z,65.80
2022-09-01T06:20:23.674Z,65.83
2022-09-01T06:21:23.324Z,65.73
2022-09-01T06:22:23.315Z,65.77
2022-09-01T06:23:23.299Z,65.72
2022-09-01T06:24:23.294Z,65.73
2022-09-01T06:25:23.275Z,65.68
2022-09-01T06:26:23.425Z,65.63
2022-09-01T06:27:23.274Z,65.49
2022-09-01T06:28:23.248Z,65.26
2022-09-01T06:29:23.245Z,65.02
2022-09-01T06:30:24.403Z,64.80
2022-09-01T06:31:23.340Z,64.79
2022-09-01T06:32:23.377Z,64.82
2022-09-01T06:33:23.195Z,64.93
2022-09-01T06:34:23.198Z,64.87
2022-09-01T06:35:23.164Z,64.77
2022-09-01T06:36:23.166Z,64.82
2022-09-01T06:37:23.311Z,64.61
2022-09-01T06:38:23.332Z,64.50
2022-09-01T06:39:23.159Z,64.44
2022-09-01T06:40:23.161Z,64.31
2022-09-01T06:41:23.106Z,64.24
2022-09-01T06:42:23.112Z,64.27
2022-09-01T06:43:23.403Z,64.18
2022-09-01T06:44:23.446Z,64.17
2022-09-01T06:45:23.062Z,63.98
2022-09-01T06:46:23.090Z,63.72
2022-09-01T06:47:23.041Z,63.55
2022-09-01T06:48:23.055Z,63.44
2022-09-01T06:49:23.016Z,63.42
2022-09-01T06:51:24.008Z,63.16
2022-09-01T06:52:22.979Z,63.07
2022-09-01T06:53:39.021Z,63.07
2022-09-01T06:54:23.964Z,62.80
2022-09-01T06:55:22.950Z,62.85
2022-09-01T06:56:23.330Z,62.87
2022-09-01T06:58:24.048Z,62.60
2022-09-01T06:59:22.905Z,62.29
2022-09-01T07:00:22.896Z,62.27
2022-09-01T07:01:23.045Z,62.08
2022-09-01T07:02:26.492Z,61.72
2022-09-01T07:03:22.855Z,61.74
2022-09-01T07:04:22.854Z,61.10
2022-09-01T07:08:23.844Z,60.86
2022-09-01T07:09:47.374Z,60.60
2022-09-01T07:10:23.873Z,60.34
2022-09-01T07:12:25.762Z,59.72
2022-09-01T07:13:22.792Z,59.64
2022-09-01T07:14:22.745Z,59.83
2022-09-01T07:16:33.843Z,59.21
2022-09-01T07:17:23.843Z,59.39
2022-09-01T07:18:22.706Z,59.26
2022-09-01T07:19:23.349Z,58.98
2022-09-01T07:20:24.093Z,58.92
2022-09-01T07:21:40.789Z,58.80
2022-09-01T07:23:03.480Z,58.69
2022-09-01T07:23:23.651Z,58.51
2022-09-01T07:24:26.569Z,58.54
2022-09-01T07:25:24.157Z,58.50
2022-09-01T07:26:25.649Z,58.56
2022-09-01T07:27:22.598Z,58.51
2022-09-01T07:28:25.364Z,58.53
2022-09-01T07:29:22.587Z,58.52
2022-09-01T07:30:24.240Z,58.52
2022-09-01T07:34:39.474Z,58.16
2022-09-01T07:35:23.506Z,57.93
2022-09-01T07:36:25.910Z,57.27
2022-09-01T07:43:23.487Z,56.64
2022-09-01T07:44:22.425Z,56.40
2022-09-01T07:45:26.061Z,56.18
2022-09-01T07:46:38.065Z,55.60
2022-09-01T07:47:52.440Z,55.95
2022-09-01T07:49:35.475Z,55.85
2022-09-01T07:51:07.495Z,56.00
2022-09-01T07:51:38.862Z,56.04
2022-09-01T07:52:23.337Z,55.09
2022-09-01T07:53:22.346Z,55.30
2022-09-01T07:54:22.501Z,55.40
2022-09-01T07:55:22.353Z,55.44
2022-09-01T07:56:22.293Z,54.98
2022-09-01T07:57:22.277Z,54.87
2022-09-01T07:58:22.270Z,54.84
2022-09-01T07:59:22.252Z,54.62
2022-09-01T08:00:22.426Z,54.67
2022-09-01T08:01:22.325Z,54.11
2022-09-01T08:02:22.250Z,54.26
2022-09-01T08:03:22.483Z,54.40
2022-09-01T08:04:22.206Z,54.34
2022-09-01T08:05:22.188Z,54.51
2022-09-01T08:06:22.339Z,54.09
2022-09-01T08:07:22.183Z,53.51
2022-09-01T08:08:27.782Z,53.65
2022-09-01T08:09:37.135Z,54.21
2022-09-01T08:10:23.185Z,54.40
2022-09-01T08:11:40.058Z,54.20
2022-09-01T08:12:28.809Z,54.34
2022-09-01T08:13:23.107Z,54.16
2022-09-01T08:14:22.093Z,54.10
2022-09-01T08:16:23.129Z,53.90
2022-09-01T08:17:50.877Z,53.63
2022-09-01T08:18:23.264Z,53.52
2022-09-01T08:19:22.048Z,53.46
2022-09-01T08:20:22.041Z,53.27
2022-09-01T08:21:22.164Z,53.50
2022-09-01T08:22:22.021Z,53.26
2022-09-01T08:23:21.990Z,53.28
2022-09-01T08:24:22.141Z,52.55
2022-09-01T08:25:24.897Z,52.81
2022-09-01T08:26:22.020Z,53.08
2022-09-01T08:27:22.059Z,52.70
2022-09-01T08:28:29.205Z,52.40
2022-09-01T08:29:23.085Z,52.52
2022-09-01T08:30:21.915Z,52.02
2022-09-01T08:31:21.941Z,51.93
2022-09-01T08:32:21.903Z,51.56
2022-09-01T08:33:21.880Z,51.90
2022-09-01T08:34:21.881Z,51.66
2022-09-01T08:35:24.853Z,51.72
2022-09-01T08:36:24.827Z,51.71
2022-09-01T08:37:21.850Z,51.50
2022-09-01T08:38:21.959Z,51.38
2022-09-01T08:39:21.833Z,51.30
2022-09-01T08:40:21.845Z,51.10
2022-09-01T08:41:21.810Z,50.54
2022-09-01T08:42:23.077Z,50.38
2022-09-01T08:43:21.922Z,50.59
2022-09-01T08:44:21.771Z,50.69
2022-09-01T08:45:21.761Z,51.16
2022-09-01T08:46:21.771Z,50.99
2022-09-01T08:47:39.422Z,51.15
2022-09-01T08:49:16.112Z,51.33
2022-09-01T08:49:26.806Z,50.53
2022-09-01T08:50:21.703Z,50.54
2022-09-01T08:51:21.692Z,50.42
2022-09-01T08:52:21.682Z,50.48
2022-09-01T08:53:21.677Z,51.00
2022-09-01T08:54:27.670Z,50.94
2022-09-01T08:55:22.654Z,51.21
2022-09-01T08:56:21.632Z,51.28
2022-09-01T08:57:21.642Z,51.10
2022-09-01T08:58:22.283Z,50.70
2022-09-01T08:59:21.618Z,50.84
2022-09-01T09:00:22.011Z,50.79
2022-09-01T09:01:21.629Z,50.53
2022-09-01T09:02:21.621Z,49.99
2022-09-01T09:03:21.580Z,49.57
2022-09-01T09:04:21.557Z,49.45
2022-09-01T09:05:21.553Z,49.31
2022-09-01T09:06:21.716Z,49.42
2022-09-01T09:07:21.522Z,49.49
2022-09-01T09:08:21.514Z,49.69
2022-09-01T09:09:32.433Z,49.61
2022-09-01T09:10:22.493Z,49.44
2022-09-01T09:11:21.568Z,49.47
2022-09-01T09:12:21.679Z,48.89
2022-09-01T09:13:21.593Z,48.65
2022-09-01T09:14:21.483Z,48.61
2022-09-01T09:15:21.433Z,48.39
2022-09-01T09:16:21.468Z,48.56
2022-09-01T09:17:21.413Z,48.49
2022-09-01T09:18:38.856Z,48.47
2022-09-01T09:19:22.392Z,48.49
2022-09-01T09:20:21.374Z,48.61
2022-09-01T09:21:21.381Z,48.59
2022-09-01T09:22:21.555Z,48.44
2022-09-01T09:23:21.756Z,47.89
2022-09-01T09:24:22.703Z,47.99
2022-09-01T09:25:21.329Z,47.54
2022-09-01T09:26:22.338Z,47.41
2022-09-01T09:27:21.322Z,47.56
2022-09-01T09:28:21.295Z,47.48
2022-09-01T09:29:21.285Z,47.76
2022-09-01T09:30:21.436Z,48.09
2022-09-01T09:31:21.297Z,48.27
2022-09-01T09:32:22.865Z,48.23
2022-09-01T09:34:22.234Z,47.43
2022-09-01T09:35:21.227Z,47.48
2022-09-01T09:36:22.196Z,47.14
2022-09-01T09:37:21.195Z,47.16
2022-09-01T09:38:21.710Z,46.95
2022-09-01T09:39:21.176Z,47.04
2022-09-01T09:40:21.182Z,47.06
2022-09-01T09:41:27.032Z,46.84
2022-09-01T09:42:22.305Z,47.10
2022-09-01T09:43:21.272Z,46.62
2022-09-01T09:44:22.842Z,46.27
2022-09-01T09:45:21.220Z,46.18
2022-09-01T09:46:25.224Z,45.85
2022-09-01T09:47:42.382Z,45.72
2022-09-01T09:48:22.230Z,45.84
2022-09-01T09:49:34.461Z,46.21
2022-09-01T09:50:22.061Z,46.12
2022-09-01T09:51:21.057Z,46.00
2022-09-01T09:52:21.052Z,45.93
2022-09-01T09:53:21.351Z,45.85
2022-09-01T09:54:21.011Z,45.72
2022-09-01T09:55:21.290Z,45.58
2022-09-01T09:56:20.986Z,45.53
2022-09-01T09:57:22.146Z,45.38
2022-09-01T09:58:20.969Z,45.45
2022-09-01T09:59:34.186Z,45.57
2022-09-01T10:00:24.025Z,45.59
2022-09-01T10:01:20.999Z,45.25
2022-09-01T10:02:20.926Z,45.06
2022-09-01T10:03:21.098Z,45.19
2022-09-01T10:04:20.998Z,45.20
2022-09-01T10:05:21.078Z,45.17
2022-09-01T10:06:20.887Z,45.00
2022-09-01T10:07:20.868Z,44.70
2022-09-01T10:08:20.870Z,44.99
2022-09-01T10:09:20.857Z,45.26
2022-09-01T10:10:20.851Z,45.28
2022-09-01T10:11:20.998Z,45.37
2022-09-01T10:12:20.826Z,45.38
2022-09-01T10:13:20.859Z,45.20
2022-09-01T10:14:35.494Z,45.09
2022-09-01T10:15:21.804Z,45.09
2022-09-01T10:16:22.025Z,45.38
2022-09-01T10:17:20.974Z,45.26
2022-09-01T10:18:21.914Z,44.78
2022-09-01T10:19:21.747Z,44.59
2022-09-01T10:20:20.734Z,44.75
2022-09-01T10:21:20.789Z,44.98
2022-09-01T10:22:20.708Z,44.84
2022-09-01T10:23:20.928Z,44.78
2022-09-01T10:24:21.597Z,44.55
2022-09-01T10:25:20.682Z,44.30
2022-09-01T10:26:20.679Z,44.07
2022-09-01T10:27:20.679Z,44.28
2022-09-01T10:28:21.331Z,43.77
2022-09-01T10:29:20.805Z,43.24
2022-09-01T10:30:20.874Z,43.25
2022-09-01T10:31:20.674Z,42.23
2022-09-01T10:32:35.004Z,42.15
2022-09-01T10:33:22.121Z,42.11
2022-09-01T10:34:20.570Z,41.91
2022-09-01T10:35:20.765Z,41.88
2022-09-01T10:36:24.500Z,42.52
2022-09-01T10:37:20.554Z,41.87
2022-09-01T10:38:20.567Z,41.74
2022-09-01T10:39:21.974Z,41.65
2022-09-01T10:40:30.244Z,41.19
2022-09-01T10:41:21.545Z,41.32
2022-09-01T10:42:20.506Z,41.38
2022-09-01T10:43:20.484Z,41.54
2022-09-01T10:44:20.483Z,40.96
2022-09-01T10:45:20.469Z,41.38
2022-09-01T10:46:39.019Z,41.39
2022-09-01T10:47:21.501Z,41.15
2022-09-01T10:48:30.297Z,40.80
2022-09-01T10:49:27.537Z,40.75
2022-09-01T10:50:21.403Z,40.46
2022-09-01T10:51:21.086Z,40.75
2022-09-01T10:52:25.795Z,40.43
2022-09-01T10:53:26.881Z,40.45
2022-09-01T10:54:21.362Z,40.09
2022-09-01T10:55:24.966Z,40.15
2022-09-01T10:56:28.313Z,40.91
2022-09-01T10:57:26.792Z,41.31
2022-09-01T10:59:41.736Z,41.87
2022-09-01T11:00:37.185Z,42.10
2022-09-01T11:01:46.686Z,41.81
2022-09-01T11:02:23.350Z,41.81
2022-09-01T11:03:42.131Z,41.71
2022-09-01T11:04:21.369Z,42.14
2022-09-01T11:05:20.354Z,41.73
2022-09-01T11:06:20.232Z,41.90
2022-09-01T11:07:38.825Z,42.42
2022-09-01T11:08:21.389Z,42.34
2022-09-01T11:09:20.273Z,42.12
2022-09-01T11:10:35.865Z,42.07
2022-09-01T11:11:21.188Z,42.45
2022-09-01T11:12:29.543Z,43.11
2022-09-01T11:13:21.156Z,43.13
2022-09-01T11:14:20.392Z,43.39
2022-09-01T11:15:20.140Z,43.29
2022-09-01T11:16:45.986Z,43.56
2022-09-01T11:17:21.239Z,43.16
2022-09-01T11:18:20.320Z,43.62
2022-09-01T11:19:20.100Z,44.00
2022-09-01T11:20:20.256Z,43.61
2022-09-01T11:21:20.072Z,43.61
2022-09-01T11:22:20.062Z,43.03
2022-09-01T11:23:20.053Z,43.06
2022-09-01T11:24:20.034Z,43.03
2022-09-01T11:25:20.029Z,43.54
2022-09-01T11:26:20.456Z,43.86
2022-09-01T11:27:19.999Z,43.16
2022-09-01T11:28:20.140Z,43.51
2022-09-01T11:29:19.985Z,43.03
2022-09-01T11:30:19.966Z,43.42
2022-09-01T11:31:19.994Z,43.11
2022-09-01T11:32:20.169Z,43.32
2022-09-01T11:33:19.943Z,43.73
2022-09-01T11:34:19.945Z,43.76
2022-09-01T11:35:19.914Z,43.71
2022-09-01T11:36:19.909Z,43.57
2022-09-01T11:37:19.898Z,43.39
2022-09-01T11:38:20.312Z,43.52
2022-09-01T11:39:20.725Z,43.74
2022-09-01T11:40:19.911Z,43.30
2022-09-01T11:41:19.845Z,43.15
2022-09-01T11:42:19.845Z,43.41
2022-09-01T11:43:19.868Z,43.51
2022-09-01T11:44:19.975Z,43.46
2022-09-01T11:45:20.743Z,43.42
2022-09-01T11:46:19.860Z,43.53
2022-09-01T11:47:19.796Z,43.43
2022-09-01T11:48:19.781Z,43.41
2022-09-01T11:49:19.769Z,43.03
2022-09-01T11:50:19.926Z,42.43
2022-09-01T11:51:19.749Z,41.77
2022-09-01T11:52:19.731Z,42.06
2022-09-01T11:53:19.856Z,42.07
2022-09-01T11:54:19.707Z,42.26
2022-09-01T11:55:19.705Z,42.38
2022-09-01T11:56:19.847Z,42.56
2022-09-01T11:57:19.701Z,42.74
2022-09-01T11:58:19.657Z,42.71
2022-09-01T11:59:19.674Z,42.68
2022-09-01T12:00:19.657Z,42.78
2022-09-01T12:01:19.636Z,42.77
2022-09-01T12:02:20.076Z,42.53
2022-09-01T12:03:19.893Z,42.56
2022-09-01T12:04:19.597Z,42.62
2022-09-01T12:05:19.597Z,42.72
2022-09-01T12:06:19.584Z,42.83
2022-09-01T12:07:19.576Z,42.44
2022-09-01T12:08:24.030Z,40.89
2022-09-01T12:09:19.577Z,41.28
2022-09-01T12:10:19.536Z,40.86
2022-09-01T12:11:19.527Z,39.86
2022-09-01T12:12:19.510Z,39.56
2022-09-01T12:13:19.597Z,39.61
2022-09-01T12:14:19.708Z,39.89
2022-09-01T12:15:19.507Z,40.18
2022-09-01T12:16:19.654Z,40.34
2022-09-01T12:17:19.478Z,40.61
2022-09-01T12:18:19.468Z,40.89
2022-09-01T12:19:19.456Z,40.73
2022-09-01T12:20:19.648Z,40.94
2022-09-01T12:21:19.448Z,40.34
2022-09-01T12:22:19.428Z,40.05
2022-09-01T12:23:19.498Z,40.47
2022-09-01T12:24:19.390Z,40.50
2022-09-01T12:25:19.384Z,40.47
2022-09-01T12:26:19.540Z,40.61
2022-09-01T12:27:19.359Z,40.30
2022-09-01T12:28:19.348Z,39.94
2022-09-01T12:29:19.348Z,39.76
2022-09-01T12:30:19.322Z,39.50
2022-09-01T12:31:19.372Z,39.17
2022-09-01T12:32:19.530Z,38.68
2022-09-01T12:33:23.381Z,38.26
2022-09-01T12:34:19.280Z,38.08
2022-09-01T12:35:19.277Z,37.93
2022-09-01T12:36:19.260Z,37.44
2022-09-01T12:37:19.255Z,37.32
2022-09-01T12:38:19.432Z,37.26
2022-09-01T12:39:19.219Z,37.51
2022-09-01T12:40:20.429Z,37.91
2022-09-01T12:41:19.271Z,38.25
2022-09-01T12:42:19.279Z,38.64
2022-09-01T12:43:19.227Z,38.99
2022-09-01T12:44:19.381Z,39.39
2022-09-01T12:45:19.167Z,39.65
2022-09-01T12:46:19.220Z,39.87
2022-09-01T12:47:19.141Z,39.93
2022-09-01T12:48:19.698Z,40.16
2022-09-01T12:49:19.136Z,40.10
2022-09-01T12:50:19.252Z,40.27
2022-09-01T12:51:19.096Z,40.58
2022-09-01T12:52:19.901Z,40.79
2022-09-01T12:53:19.182Z,41.02
2022-09-01T12:54:21.282Z,41.20
2022-09-01T12:56:20.225Z,41.14
2022-09-01T12:57:19.023Z,41.21
2022-09-01T12:58:19.034Z,41.40
2022-09-01T12:59:23.286Z,41.53
2022-09-01T13:00:20.003Z,41.54
2022-09-01T13:01:19.075Z,41.52
2022-09-01T13:02:19.954Z,41.55
2022-09-01T13:03:19.015Z,41.50
2022-09-01T13:04:18.955Z,41.56
2022-09-01T13:05:18.943Z,41.70
2022-09-01T13:06:18.937Z,42.08
2022-09-01T13:07:18.922Z,41.81
2022-09-01T13:08:19.071Z,41.21
2022-09-01T13:09:18.892Z,41.32
2022-09-01T13:10:18.913Z,41.18
2022-09-01T13:11:20.159Z,40.33
2022-09-01T13:12:18.876Z,40.38
2022-09-01T13:13:18.906Z,40.54
2022-09-01T13:14:19.002Z,40.72